createdAt,value
2022-12-04T00:00:09.860Z,59.78
2022-12-04T00:03:00.082Z,54.05
2022-12-04T00:05:30.558Z,60.13
2022-12-04T00:08:00.601Z,60.50
2022-12-04T00:10:34.509Z,56.22
2022-12-04T00:13:03.322Z,55.22
2022-12-04T00:15:32.515Z,56.92
2022-12-04T00:18:01.092Z,53.47
2022-12-04T00:20:32.327Z,60.58
2022-12-04T00:23:01.929Z,56.55
2022-12-04T00:25:35.264Z,57.83
2022-12-04T00:28:08.577Z,60.42
2022-12-04T00:30:44.120Z,55.08
2022-12-04T00:33:31.798Z,54.45
2022-12-04T00:39:03.426Z,54.67
2022-12-04T00:41:51.008Z,58.70
2022-12-04T00:44:19.988Z,59.67
2022-12-04T00:46:49.470Z,57.92
2022-12-04T00:49:17.775Z,55.80
2022-12-04T00:51:47.673Z,57.10
2022-12-04T00:54:16.820Z,56.20
2022-12-04T00:56:47.949Z,57.45
2022-12-04T00:59:19.523Z,58.47
2022-12-04T01:01:48.437Z,56.00
2022-12-04T01:04:17.398Z,56.30
2022-12-04T01:06:47.749Z,66.82
2022-12-04T01:09:34.169Z,56.13
2022-12-04T01:12:21.218Z,52.80
2022-12-04T01:15:02.349Z,51.80
2022-12-04T01:17:52.155Z,56.47
2022-12-04T01:20:20.549Z,53.72
2022-12-04T01:22:56.383Z,58.83
2022-12-04T01:25:27.032Z,65.43
2022-12-04T01:27:55.378Z,58.83
2022-12-04T01:30:25.525Z,56.55
2022-12-04T01:33:13.349Z,52.28
2022-12-04T01:35:41.831Z,54.72
2022-12-04T01:38:13.300Z,60.30
2022-12-04T01:40:45.056Z,52.38
2022-12-04T01:43:14.708Z,47.33
2022-12-04T01:45:46.291Z,58.88
2022-12-04T01:48:21.089Z,56.28
2022-12-04T01:51:25.705Z,61.08
2022-12-04T01:54:13.304Z,53.90
2022-12-04T01:57:14.506Z,52.13
2022-12-04T02:00:04.673Z,54.63
2022-12-04T02:02:52.308Z,49.70
2022-12-04T02:05:42.466Z,58.35
2022-12-04T02:08:27.278Z,59.97
2022-12-04T02:11:34.810Z,46.88
2022-12-04T02:14:40.845Z,54.58
2022-12-04T02:17:21.293Z,48.15
2022-12-04T02:19:55.813Z,58.10
2022-12-04T02:22:45.531Z,51.90
2022-12-04T02:25:22.345Z,55.50
2022-12-04T02:28:25.849Z,55.92
2022-12-04T02:30:59.309Z,53.50
2022-12-04T02:33:32.544Z,47.45
2022-12-04T02:36:07.252Z,53.85
2022-12-04T02:38:41.569Z,51.33
2022-12-04T02:41:15.115Z,51.05
2022-12-04T02:43:46.313Z,53.53
2022-12-04T02:46:27.444Z,51.30
2022-12-04T02:49:20.323Z,44.75
2022-12-04T02:52:00.896Z,49.45
2022-12-04T02:54:52.324Z,42.58
2022-12-04T02:57:37.031Z,56.17
2022-12-04T03:00:09.129Z,52.90
2022-12-04T03:03:04.890Z,51.63
2022-12-04T03:05:52.425Z,51.80
2022-12-04T03:08:48.580Z,52.15
2022-12-04T03:11:37.338Z,57.05
2022-12-04T03:14:28.949Z,47.92
2022-12-04T03:17:10.039Z,53.05
2022-12-04T03:19:44.459Z,49.63
2022-12-04T03:22:14.846Z,52.22
2022-12-04T03:24:51.816Z,49.85
2022-12-04T03:27:32.335Z,52.17
2022-12-04T03:30:07.029Z,50.40
2022-12-04T03:32:54.659Z,56.72
2022-12-04T03:35:27.110Z,53.75
2022-12-04T03:38:14.263Z,55.35
2022-12-04T03:40:55.013Z,53.03
2022-12-04T03:43:32.905Z,50.00
2022-12-04T03:46:03.709Z,54.15
2022-12-04T03:48:38.009Z,50.08
2022-12-04T03:51:10.064Z,59.03
2022-12-04T03:53:47.420Z,53.75
2022-12-04T03:56:30.356Z,57.40
2022-12-04T03:59:05.151Z,50.17
2022-12-04T04:01:36.427Z,48.88
2022-12-04T04:04:22.497Z,47.78
2022-12-04T04:07:15.330Z,47.25
2022-12-04T04:09:55.490Z,47.30
2022-12-04T04:13:10.821Z,53.53
2022-12-04T04:16:11.121Z,48.83
2022-12-04T04:19:13.085Z,47.58
2022-12-04T04:22:18.650Z,43.85
2022-12-04T04:24:51.493Z,45.83
2022-12-04T04:27:19.803Z,51.00
2022-12-04T04:29:52.542Z,43.25
2022-12-04T04:32:24.194Z,45.35
2022-12-04T04:34:55.287Z,48.30
2022-12-04T04:37:23.544Z,45.20
2022-12-04T04:40:10.676Z,42.55
2022-12-04T04:42:50.385Z,44.38
2022-12-04T04:45:23.144Z,43.60
2022-12-04T04:47:53.905Z,41.38
2022-12-04T04:50:22.828Z,47.67
2022-12-04T04:52:53.886Z,43.95
2022-12-04T04:55:42.117Z,39.40
2022-12-04T04:58:16.641Z,36.63
2022-12-04T05:00:51.085Z,39.33
2022-12-04T05:06:18.285Z,43.10
2022-12-04T05:09:01.893Z,38.13
2022-12-04T05:11:49.686Z,40.65
2022-12-04T05:14:37.290Z,43.63
2022-12-04T05:17:12.837Z,34.47
2022-12-04T05:19:57.863Z,39.13
2022-12-04T05:22:30.270Z,37.55
2022-12-04T05:25:06.126Z,41.08
2022-12-04T05:27:53.778Z,37.95
2022-12-04T05:30:38.383Z,38.13
2022-12-04T05:33:28.653Z,37.05
2022-12-04T05:36:08.208Z,39.25
2022-12-04T05:38:51.143Z,34.83
2022-12-04T05:41:19.689Z,36.65
2022-12-04T05:43:48.538Z,36.15
2022-12-04T05:46:17.183Z,42.95
2022-12-04T05:49:04.868Z,35.60
2022-12-04T05:51:54.129Z,40.53
2022-12-04T05:54:41.793Z,38.90
2022-12-04T05:59:54.557Z,40.15
2022-12-04T06:02:23.807Z,36.15
2022-12-04T06:04:55.289Z,33.97
2022-12-04T06:07:23.491Z,38.67
2022-12-04T06:09:56.090Z,43.30
2022-12-04T06:12:46.613Z,31.73
2022-12-04T06:15:37.930Z,36.60
2022-12-04T06:18:25.566Z,41.08
2022-12-04T06:21:11.318Z,37.10
2022-12-04T06:23:40.278Z,35.50
2022-12-04T06:26:11.772Z,34.08
2022-12-04T06:28:42.362Z,34.90
2022-12-04T06:31:12.551Z,42.53
2022-12-04T06:33:56.782Z,37.05
2022-12-04T06:36:28.902Z,36.63
2022-12-04T06:38:58.758Z,32.78
2022-12-04T06:41:28.496Z,36.72
2022-12-04T06:44:12.500Z,33.70
2022-12-04T06:46:55.857Z,40.88
2022-12-04T06:49:36.209Z,38.92
2022-12-04T06:52:21.369Z,30.88
2022-12-04T06:54:52.265Z,36.50
2022-12-04T06:57:22.757Z,31.83
2022-12-04T06:59:51.537Z,29.60
2022-12-04T07:02:21.230Z,34.88
2022-12-04T07:04:55.388Z,30.42
2022-12-04T07:07:43.063Z,36.50
2022-12-04T07:10:26.173Z,30.40
2022-12-04T07:13:13.942Z,29.30
2022-12-04T07:16:02.267Z,32.85
2022-12-04T07:18:33.692Z,36.78
2022-12-04T07:21:17.603Z,30.90
2022-12-04T07:24:04.497Z,31.33
2022-12-04T07:26:55.816Z,24.25
2022-12-04T07:29:24.269Z,27.92
2022-12-04T07:31:55.272Z,27.55
2022-12-04T07:34:25.196Z,30.55
2022-12-04T07:36:54.372Z,26.13
2022-12-04T07:39:23.153Z,25.52
2022-12-04T07:42:09.074Z,25.08
2022-12-04T07:44:56.692Z,26.98
2022-12-04T07:47:41.421Z,22.63
2022-12-04T07:50:20.508Z,24.00
2022-12-04T07:53:08.185Z,24.08
2022-12-04T07:55:56.028Z,23.02
2022-12-04T07:58:41.022Z,31.13
2022-12-04T08:01:30.699Z,24.33
2022-12-04T08:04:18.680Z,25.98
2022-12-04T08:07:08.623Z,26.92
2022-12-04T08:09:42.899Z,24.02
2022-12-04T08:12:32.182Z,24.60
2022-12-04T08:15:19.821Z,24.92
2022-12-04T08:18:07.611Z,21.40
2022-12-04T08:20:55.756Z,23.40
2022-12-04T08:23:38.963Z,23.13
2022-12-04T08:26:11.120Z,22.58
2022-12-04T08:28:39.923Z,21.73
2022-12-04T08:31:19.617Z,19.27
2022-12-04T08:33:51.284Z,24.77
2022-12-04T08:36:39.032Z,22.80
2022-12-04T08:39:08.990Z,20.10
2022-12-04T08:41:57.857Z,21.45
2022-12-04T08:44:46.230Z,22.92
2022-12-04T08:47:15.479Z,20.92
2022-12-04T08:49:47.120Z,23.23
2022-12-04T08:52:15.650Z,22.73
2022-12-04T08:54:50.965Z,23.08
2022-12-04T08:57:22.315Z,24.73
2022-12-04T08:59:51.899Z,23.35
2022-12-04T09:02:23.627Z,21.42
2022-12-04T09:04:55.016Z,22.33
2022-12-04T09:07:38.778Z,23.20
2022-12-04T09:10:27.048Z,24.58
2022-12-04T09:13:13.978Z,23.42
2022-12-04T09:15:59.067Z,22.88
2022-12-04T09:18:28.683Z,24.48
2022-12-04T09:21:00.735Z,22.83
2022-12-04T09:23:32.426Z,22.02
2022-12-04T09:26:04.874Z,22.90
2022-12-04T09:28:34.085Z,23.38
2022-12-04T09:31:22.318Z,18.75
2022-12-04T09:34:10.122Z,23.08
2022-12-04T09:36:57.830Z,21.83
2022-12-04T09:39:46.995Z,25.15
2022-12-04T09:42:53.417Z,20.63
2022-12-04T09:45:51.108Z,23.77
2022-12-04T09:49:07.302Z,22.48
2022-12-04T09:51:40.025Z,26.27
2022-12-04T09:54:15.282Z,23.45
2022-12-04T09:56:45.331Z,23.58
2022-12-04T09:59:22.218Z,24.77
2022-12-04T10:01:52.932Z,23.08
2022-12-04T10:04:21.418Z,23.98
2022-12-04T10:07:03.026Z,24.08
2022-12-04T10:09:31.304Z,23.02
2022-12-04T10:12:08.922Z,23.23
2022-12-04T10:14:51.197Z,27.80
2022-12-04T10:17:33.474Z,22.88
2022-12-04T10:20:04.844Z,24.73
2022-12-04T10:22:59.614Z,23.42
2022-12-04T10:25:35.151Z,21.58
2022-12-04T10:28:21.317Z,24.23
2022-12-04T10:30:59.015Z,23.05
2022-12-04T10:33:39.018Z,23.92
2022-12-04T10:36:14.903Z,27.17
2022-12-04T10:38:54.760Z,22.60
2022-12-04T10:41:32.300Z,26.92
2022-12-04T10:44:02.929Z,26.08
2022-12-04T10:46:39.555Z,22.08
2022-12-04T10:49:18.067Z,24.58
2022-12-04T10:51:48.196Z,24.52
2022-12-04T10:54:37.584Z,29.38
2022-12-04T10:57:35.766Z,23.83
2022-12-04T11:00:28.289Z,23.95
2022-12-04T11:03:29.547Z,21.15
2022-12-04T11:06:00.448Z,21.95
2022-12-04T11:08:41.862Z,25.17
2022-12-04T11:11:14.282Z,25.90
2022-12-04T11:13:48.480Z,22.20
2022-12-04T11:16:35.810Z,21.88
2022-12-04T11:19:26.474Z,23.55
2022-12-04T11:22:20.464Z,26.15
2022-12-04T11:25:06.912Z,25.30
2022-12-04T11:28:00.192Z,21.17
2022-12-04T11:30:47.838Z,25.73
2022-12-04T11:33:38.724Z,25.90
2022-12-04T11:36:30.310Z,25.23
2022-12-04T11:40:08.255Z,25.02
2022-12-04T11:43:14.476Z,21.33
2022-12-04T11:46:02.774Z,24.80
2022-12-04T11:49:01.856Z,26.40
2022-12-04T12:11:27.069Z,31.15
2022-12-04T12:14:14.549Z,33.22
2022-12-04T12:17:00.492Z,35.83
2022-12-04T12:19:32.616Z,29.58
2022-12-04T12:22:07.066Z,27.05
2022-12-04T12:24:41.022Z,28.55
2022-12-04T12:27:24.030Z,27.52
2022-12-04T12:30:12.119Z,31.52
2022-12-04T12:33:09.543Z,32.22
2022-12-04T12:35:50.483Z,36.10
2022-12-04T12:38:29.572Z,30.33
2022-12-04T12:41:13.415Z,28.95
2022-12-04T12:44:00.125Z,26.30
2022-12-04T12:46:54.511Z,31.55
2022-12-04T12:49:49.707Z,32.15
2022-12-04T12:52:46.904Z,30.77
2022-12-04T12:55:40.514Z,31.70
2022-12-04T12:58:14.343Z,27.02
2022-12-04T13:01:15.569Z,30.75
2022-12-04T13:03:45.358Z,35.47
2022-12-04T13:06:30.720Z,35.10
2022-12-04T13:09:00.524Z,31.48
2022-12-04T13:11:37.519Z,35.30
2022-12-04T13:14:22.922Z,32.28
2022-12-04T13:17:05.237Z,29.77
2022-12-04T13:19:43.276Z,30.50
2022-12-04T13:22:17.199Z,33.95
2022-12-04T13:24:48.856Z,30.77
2022-12-04T13:27:17.086Z,29.42
2022-12-04T13:29:50.769Z,33.65
2022-12-04T13:32:26.787Z,36.85
2022-12-04T13:34:55.822Z,32.42
2022-12-04T13:37:59.378Z,29.92
2022-12-04T13:40:27.738Z,29.17
2022-12-04T13:43:15.590Z,30.13
2022-12-04T13:45:48.817Z,32.05
2022-12-04T13:48:30.702Z,30.27
2022-12-04T13:51:09.689Z,35.95
2022-12-04T13:54:04.616Z,35.40
2022-12-04T13:56:46.610Z,36.17
2022-12-04T13:59:31.149Z,36.70
2022-12-04T14:02:27.712Z,35.67
2022-12-04T14:05:08.079Z,32.92
2022-12-04T14:08:07.129Z,38.42
2022-12-04T14:11:10.140Z,36.33
2022-12-04T14:13:59.298Z,34.03
2022-12-04T14:16:49.202Z,31.80
2022-12-04T14:19:37.523Z,29.27
2022-12-04T14:22:46.720Z,28.98
2022-12-04T14:25:37.198Z,28.67
2022-12-04T14:28:42.210Z,32.75
2022-12-04T14:31:33.475Z,32.58
2022-12-04T14:34:23.822Z,28.50
2022-12-04T14:36:56.135Z,34.58
2022-12-04T14:39:29.635Z,35.08
2022-12-04T14:42:16.992Z,33.35
2022-12-04T14:44:46.370Z,31.35
2022-12-04T14:47:50.758Z,31.42
2022-12-04T14:50:39.243Z,30.52
2022-12-04T14:53:07.716Z,33.05
2022-12-04T14:55:55.886Z,27.48
2022-12-04T14:58:34.583Z,27.20
2022-12-04T15:01:04.991Z,31.55
2022-12-04T15:03:37.571Z,30.98
2022-12-04T15:06:14.968Z,28.75
2022-12-04T15:09:18.735Z,28.38
2022-12-04T15:12:17.262Z,28.10
2022-12-04T15:14:47.802Z,35.05
2022-12-04T15:17:19.359Z,34.45
2022-12-04T15:19:49.772Z,28.63
2022-12-04T15:22:23.238Z,30.23
2022-12-04T15:24:52.235Z,27.50
2022-12-04T15:27:27.464Z,26.02
2022-12-04T15:30:02.640Z,24.55
2022-12-04T15:32:42.276Z,32.28
2022-12-04T15:35:17.586Z,30.25
2022-12-04T15:37:48.447Z,32.17
2022-12-04T15:40:22.410Z,30.52
2022-12-04T15:42:51.557Z,29.88
2022-12-04T15:45:28.051Z,34.00
2022-12-04T15:48:28.288Z,27.05
2022-12-04T15:51:01.856Z,34.88
2022-12-04T15:53:44.192Z,34.13
2022-12-04T15:56:21.599Z,33.33
2022-12-04T15:59:02.072Z,30.48
2022-12-04T16:01:48.515Z,31.60
2022-12-04T16:04:36.144Z,28.95
2022-12-04T16:07:29.608Z,27.65
2022-12-04T16:10:26.117Z,29.80
2022-12-04T16:13:27.584Z,28.40
2022-12-04T16:16:09.180Z,29.13
2022-12-04T16:18:53.470Z,33.72
2022-12-04T16:21:42.192Z,31.00
2022-12-04T16:24:12.198Z,28.42
2022-12-04T16:27:01.112Z,31.58
2022-12-04T16:29:43.106Z,26.60
2022-12-04T16:32:30.477Z,29.35
2022-12-04T16:35:08.876Z,36.13
2022-12-04T16:37:56.819Z,32.92
2022-12-04T16:40:45.834Z,36.88
2022-12-04T16:43:35.925Z,33.83
2022-12-04T16:46:05.662Z,32.47
2022-12-04T16:48:53.466Z,42.75
2022-12-04T16:51:37.636Z,37.22
2022-12-04T16:54:22.578Z,39.97
2022-12-04T16:56:56.241Z,37.90
2022-12-04T16:59:44.591Z,36.42
2022-12-04T17:02:27.097Z,33.35
2022-12-04T17:05:13.524Z,43.05
2022-12-04T17:07:59.517Z,43.72
2022-12-04T17:10:36.195Z,40.92
2022-12-04T17:13:21.553Z,35.70
2022-12-04T17:16:04.348Z,36.10
2022-12-04T17:18:47.134Z,39.47
2022-12-04T17:21:35.367Z,32.00
2022-12-04T17:24:48.066Z,40.33
2022-12-04T17:28:01.938Z,36.25
2022-12-04T17:31:01.831Z,27.23
2022-12-04T17:33:58.268Z,35.13
2022-12-04T17:36:52.408Z,40.53
2022-12-04T17:39:56.238Z,38.60
2022-12-04T17:43:07.321Z,40.13
2022-12-04T17:45:50.630Z,36.63
2022-12-04T17:48:34.676Z,44.83
2022-12-04T17:51:21.285Z,46.00
2022-12-04T17:53:53.539Z,39.22
2022-12-04T17:56:25.289Z,35.85
2022-12-04T17:59:01.407Z,39.65
2022-12-04T18:01:32.095Z,40.15
2022-12-04T18:04:19.201Z,39.80
2022-12-04T18:07:02.883Z,46.55
2022-12-04T18:09:44.867Z,40.42
2022-12-04T18:12:35.290Z,44.42
2022-12-04T18:15:23.113Z,43.90
2022-12-04T18:18:10.825Z,43.95
2022-12-04T18:21:01.249Z,40.28
2022-12-04T18:23:49.191Z,39.63
2022-12-04T18:26:19.152Z,41.75
2022-12-04T18:28:48.773Z,43.95
2022-12-04T18:31:21.738Z,37.38
2022-12-04T18:33:59.141Z,39.85
2022-12-04T18:36:46.567Z,42.03
2022-12-04T18:39:32.042Z,46.88
2022-12-04T18:42:04.067Z,39.72
2022-12-04T18:44:47.761Z,39.45
2022-12-04T18:47:16.382Z,46.45
2022-12-04T18:49:49.987Z,46.38
2022-12-04T18:52:22.724Z,46.25
2022-12-04T18:54:52.200Z,42.42
2022-12-04T18:57:41.414Z,46.30
2022-12-04T19:00:21.437Z,47.40
2022-12-04T19:03:09.841Z,45.00
2022-12-04T19:05:51.674Z,50.90
2022-12-04T19:08:38.761Z,44.15
2022-12-04T19:11:30.266Z,44.47
2022-12-04T19:14:23.431Z,48.75
2022-12-04T19:17:13.242Z,53.00
2022-12-04T19:20:02.892Z,48.08
2022-12-04T19:22:50.506Z,49.75
2022-12-04T19:25:38.100Z,47.25
2022-12-04T19:28:27.479Z,48.58
2022-12-04T19:31:19.357Z,46.00
2022-12-04T19:34:07.247Z,46.17
2022-12-04T19:36:51.288Z,50.58
2022-12-04T19:39:35.852Z,61.33
2022-12-04T19:42:04.361Z,49.83
2022-12-04T19:44:49.818Z,54.80
2022-12-04T19:47:41.388Z,50.00
2022-12-04T19:50:26.932Z,86.38
2022-12-04T19:52:55.636Z,58.35
2022-12-04T19:55:25.238Z,55.30
2022-12-04T19:57:53.906Z,47.92
2022-12-04T20:00:24.229Z,49.80
2022-12-04T20:03:12.611Z,54.67
2022-12-04T20:05:41.380Z,59.25
2022-12-04T20:08:27.857Z,52.70
2022-12-04T20:11:17.045Z,54.53
2022-12-04T20:14:05.285Z,67.32
2022-12-04T20:19:35.702Z,59.10
2022-12-04T20:22:21.554Z,59.72
2022-12-04T20:25:06.930Z,54.97
2022-12-04T20:27:50.742Z,65.15
2022-12-04T20:30:38.442Z,57.72
2022-12-04T20:33:26.213Z,61.88
2022-12-04T20:36:15.286Z,55.05
2022-12-04T20:41:20.495Z,57.03
2022-12-04T20:43:49.426Z,54.58
2022-12-04T20:46:22.491Z,59.40
2022-12-04T20:49:09.491Z,56.83
2022-12-04T20:51:52.956Z,53.70
2022-12-04T20:54:41.786Z,56.03
2022-12-04T20:57:23.720Z,56.17
2022-12-04T20:59:56.005Z,54.65
2022-12-04T21:02:44.533Z,49.38
2022-12-04T21:05:34.810Z,56.65
2022-12-04T21:08:41.311Z,54.72
2022-12-04T21:11:29.599Z,53.58
2022-12-04T21:14:34.577Z,55.10
2022-12-04T21:17:18.844Z,49.70
2022-12-04T21:20:07.944Z,58.28
2022-12-04T21:22:48.614Z,47.85
2022-12-04T21:25:17.597Z,56.20
2022-12-04T21:27:51.312Z,62.78
2022-12-04T21:30:20.161Z,59.35
2022-12-04T21:33:07.813Z,54.63
2022-12-04T21:35:41.084Z,45.13
2022-12-04T21:38:14.739Z,53.28
2022-12-04T21:40:43.548Z,51.28
2022-12-04T21:43:27.628Z,51.55
2022-12-04T21:46:15.330Z,43.30
2022-12-04T21:49:05.747Z,45.85
2022-12-04T21:51:57.204Z,50.97
2022-12-04T21:54:29.283Z,53.75
2022-12-04T21:57:03.025Z,41.05
2022-12-04T21:59:32.978Z,51.97
2022-12-04T22:02:02.200Z,52.60
2022-12-04T22:04:32.637Z,48.17
2022-12-04T22:07:03.868Z,41.53
2022-12-04T22:09:33.057Z,47.58
2022-12-04T22:12:04.222Z,42.70
2022-12-04T22:14:57.824Z,40.47
2022-12-04T22:17:45.545Z,36.40
2022-12-04T22:20:33.454Z,44.33
2022-12-04T22:23:20.352Z,44.85
2022-12-04T22:25:51.836Z,43.08
2022-12-04T22:28:20.570Z,47.13
2022-12-04T22:30:51.345Z,50.70
2022-12-04T22:33:31.637Z,46.88
2022-12-04T22:36:19.839Z,47.17
2022-12-04T22:39:10.823Z,48.92
2022-12-04T22:41:57.464Z,44.58
2022-12-04T22:44:45.026Z,53.72
2022-12-04T22:47:26.285Z,49.80
2022-12-04T22:49:56.514Z,64.45
2022-12-04T22:52:25.064Z,55.95
2022-12-04T22:54:56.569Z,54.72
2022-12-04T22:57:42.659Z,49.25
2022-12-04T23:00:30.255Z,53.70
2022-12-04T23:03:17.972Z,51.22
2022-12-04T23:06:00.879Z,50.65
2022-12-04T23:08:44.067Z,52.30
2022-12-04T23:11:31.615Z,53.88
2022-12-04T23:14:19.449Z,49.03
2022-12-04T23:17:01.096Z,48.60
2022-12-04T23:19:31.799Z,52.92
2022-12-04T23:22:02.679Z,55.03
2022-12-04T23:24:33.317Z,53.42
2022-12-04T23:27:02.963Z,57.50
2022-12-04T23:32:22.932Z,44.42
2022-12-04T23:34:52.975Z,46.75
2022-12-04T23:37:21.659Z,51.20
2022-12-04T23:39:52.914Z,52.42
2022-12-04T23:42:24.626Z,50.25
2022-12-04T23:44:52.939Z,46.35
2022-12-04T23:47:23.441Z,52.13
2022-12-04T23:49:54.485Z,50.13
2022-12-04T23:52:23.092Z,47.95
2022-12-04T23:54:56.535Z,47.42
2022-12-04T23:57:25.075Z,50.50
2022-12-04T23:59:55.856Z,51.97
